Time;durP1;ratioP1;P1;durP2;ratioP2;P2;SDS_P1;SDS_P2;PMS_P1;PMS_P2;Temp;Humidity;BMP_temperature;BMP_pressure;BME280_temperature;BME280_humidity;BME280_pressure;Samples;Min_cycle;Max_cycle;Signal;HPM_P1;HPM_P2
2022/08/04 00:01:30;;;;;;;13.72;12.33;;;;;;;20.57;75.47;100938.95;1781307;79;25774;-79
2022/08/04 00:04:04;;;;;;;13.78;12.28;;;;;;;20.55;75.46;100939.73;1790443;78;25846;-77
2022/08/04 00:06:49;;;;;;;13.18;11.88;;;;;;;20.53;75.56;100941.31;1723568;78;27295;-78
2022/08/04 00:09:33;;;;;;;16.25;12.68;;;;;;;20.50;75.60;100943.17;1783060;78;26593;-78
2022/08/04 00:12:01;;;;;;;13.15;11.78;;;;;;;20.49;75.66;100943.40;1800527;78;25887;-77
2022/08/04 00:14:34;;;;;;;15.50;13.08;;;;;;;20.46;75.63;100950.70;1790824;78;26739;-78
2022/08/04 00:17:05;;;;;;;14.70;12.85;;;;;;;20.41;75.64;100947.35;1788407;78;26413;-79
2022/08/04 00:19:44;;;;;;;15.20;13.60;;;;;;;20.38;75.76;100949.18;1789918;78;27470;-78
2022/08/04 00:22:13;;;;;;;16.02;13.05;;;;;;;20.33;75.69;100949.11;1790541;78;25895;-82
2022/08/04 00:24:40;;;;;;;17.48;13.60;;;;;;;20.30;75.81;100946.86;1793159;78;25776;-76
2022/08/04 00:27:07;;;;;;;16.90;13.28;;;;;;;20.28;75.81;100944.08;1781570;78;25845;-78
2022/08/04 00:29:37;;;;;;;15.10;12.70;;;;;;;20.24;75.90;100951.91;1791128;78;26384;-79
2022/08/04 00:32:07;;;;;;;14.40;12.35;;;;;;;20.20;75.97;100946.66;1784892;78;28294;-78
2022/08/04 00:34:35;;;;;;;15.30;12.50;;;;;;;20.18;76.04;100952.02;1789936;78;25829;-77
2022/08/04 00:37:04;;;;;;;16.50;12.55;;;;;;;20.15;76.11;100956.03;1789714;78;25940;-78
2022/08/04 00:39:31;;;;;;;13.70;12.30;;;;;;;20.13;76.13;100958.70;1793604;78;25889;-79
2022/08/04 00:42:33;;;;;;;13.50;11.88;;;;;;;20.09;76.28;100953.45;1798621;78;26347;-78
2022/08/04 00:45:17;;;;;;;14.78;11.90;;;;;;;20.06;76.25;100960.19;1774356;78;28285;-78
2022/08/04 00:48:33;;;;;;;12.70;11.50;;;;;;;20.05;76.36;100961.80;1778021;78;25968;-77
2022/08/04 00:51:16;;;;;;;13.32;11.93;;;;;;;20.03;76.40;100955.77;1800527;78;25806;-76
2022/08/04 00:54:09;;;;;;;12.98;11.48;;;;;;;19.99;76.52;100954.88;1790520;78;25807;-78
2022/08/04 00:57:15;;;;;;;13.05;11.63;;;;;;;19.97;76.57;100956.20;1804762;77;25768;-77
2022/08/04 00:59:59;;;;;;;12.58;11.38;;;;;;;19.95;76.54;100961.06;1809373;77;28224;-77
2022/08/04 01:02:36;;;;;;;12.73;10.78;;;;;;;19.89;76.50;100953.83;1811375;77;25832;-78
2022/08/04 01:05:49;;;;;;;13.22;11.08;;;;;;;19.84;76.58;100960.55;1799889;78;26085;-78
2022/08/04 01:08:55;;;;;;;12.50;11.00;;;;;;;19.81;76.63;100957.76;1785259;78;25998;-78
2022/08/04 01:11:58;;;;;;;14.70;11.75;;;;;;;19.77;76.67;100959.30;1763646;78;25966;-79
2022/08/04 01:14:39;;;;;;;14.20;10.85;;;;;;;19.73;76.83;100962.21;1808475;77;27409;-78
2022/08/04 01:17:15;;;;;;;;;;;;;;;19.68;76.96;100963.97;1792254;78;25719;-81
2022/08/04 01:20:01;;;;;;;16.50;10.65;;;;;;;19.65;77.09;100966.63;1785901;78;25944;-78
2022/08/04 01:22:42;;;;;;;12.85;11.20;;;;;;;19.59;77.02;100966.22;1792179;78;25828;-78
2022/08/04 01:25:55;;;;;;;13.20;10.78;;;;;;;19.57;77.04;100962.08;1782538;78;26019;-77
2022/08/04 01:28:35;;;;;;;12.33;10.93;;;;;;;19.51;77.19;100966.58;1788015;78;27449;-78
2022/08/04 01:31:13;;;;;;;11.88;10.63;;;;;;;19.46;77.34;100967.80;1778932;78;26016;-76
2022/08/04 01:33:42;;;;;;;11.68;10.50;;;;;;;19.44;77.38;100966.41;1790587;78;25859;-78
2022/08/04 01:36:10;;;;;;;15.13;9.95;;;;;;;19.43;77.34;100970.17;1782248;78;25720;-77
2022/08/04 01:38:40;;;;;;;12.95;9.88;;;;;;;19.41;77.30;100966.34;1780607;78;25873;-79
2022/08/04 01:41:09;;;;;;;11.15;9.88;;;;;;;19.41;77.35;100973.14;1788913;78;27502;-80
2022/08/04 01:43:40;;;;;;;10.75;9.75;;;;;;;19.38;77.27;100964.61;1752176;80;26547;-78
2022/08/04 01:46:11;;;;;;;11.88;10.15;;;;;;;19.36;77.35;100968.09;1817932;77;26020;-78
2022/08/04 01:48:38;;;;;;;;;;;;;;;19.35;77.43;100974.09;1830799;77;25727;-79
2022/08/04 01:51:07;;;;;;;10.10;9.10;;;;;;;19.32;77.53;100973.16;1806591;77;26045;-78
2022/08/04 01:53:42;;;;;;;11.00;8.83;;;;;;;19.28;77.61;100972.49;1787594;78;27504;-78
2022/08/04 01:56:11;;;;;;;9.98;8.98;;;;;;;19.25;77.60;100966.47;1789665;78;25849;-77
2022/08/04 01:58:39;;;;;;;11.60;8.53;;;;;;;19.24;77.67;100971.63;1817483;77;25770;-77
2022/08/04 02:01:11;;;;;;;8.18;7.47;;;;;;;19.24;77.65;100967.55;1817153;78;25735;-76
2022/08/04 02:03:43;;;;;;;10.45;7.12;;;;;;;19.25;77.69;100971.91;1815835;78;25739;-77
2022/08/04 02:06:32;;;;;;;9.48;7.87;;;;;;;19.24;77.49;100967.55;1815117;78;27432;-79
2022/08/04 02:09:19;;;;;;;9.45;8.30;;;;;;;19.22;77.49;100965.57;1816127;78;25730;-77
2022/08/04 02:11:54;;;;;;;9.88;7.62;;;;;;;19.20;77.56;100963.62;1802897;77;25731;-77
2022/08/04 02:14:40;;;;;;;8.85;7.65;;;;;;;19.18;77.50;100958.16;1815151;78;26499;-78
2022/08/04 02:17:20;;;;;;;8.13;7.33;;;;;;;19.15;77.47;100959.44;1792214;78;25660;-78
2022/08/04 02:20:16;;;;;;;13.25;7.95;;;;;;;19.12;77.61;100957.70;1746443;79;28320;-78
2022/08/04 02:22:48;;;;;;;9.93;8.15;;;;;;;19.08;77.65;100957.35;1794556;79;26617;-77
2022/08/04 02:25:20;;;;;;;13.80;8.08;;;;;;;19.04;77.76;100953.45;1792924;78;25293;-78
2022/08/04 02:27:58;;;;;;;13.05;8.08;;;;;;;19.03;77.89;100955.05;1777953;79;25773;-77
2022/08/04 02:30:40;;;;;;;9.20;7.80;;;;;;;18.99;77.86;100951.16;1769487;79;26023;-78
2022/08/04 02:33:08;;;;;;;9.88;8.93;;;;;;;18.97;77.87;100949.17;1778718;78;28291;-78
2022/08/04 02:35:38;;;;;;;11.10;8.88;;;;;;;18.94;77.86;100953.73;1814334;77;25516;-78
2022/08/04 02:38:30;;;;;;;14.93;9.55;;;;;;;18.90;78.01;100957.97;1813979;78;25773;-78
2022/08/04 02:41:00;;;;;;;14.23;8.65;;;;;;;18.87;78.11;100949.76;1798938;78;26269;-82
2022/08/04 02:43:29;;;;;;;10.18;8.10;;;;;;;18.84;78.12;100948.05;1813276;78;25829;-80
2022/08/04 02:45:57;;;;;;;9.78;7.70;;;;;;;18.83;78.00;100954.52;1815187;78;27467;-78
2022/08/04 02:48:26;;;;;;;9.58;7.90;;;;;;;18.79;77.89;100955.53;1797043;78;25817;-78
2022/08/04 02:50:53;;;;;;;10.63;9.03;;;;;;;18.77;78.00;100952.73;1780886;79;25954;-79
2022/08/04 02:53:22;;;;;;;9.30;8.40;;;;;;;18.75;78.10;100950.27;1816249;77;25805;-77
2022/08/04 02:55:50;;;;;;;8.90;8.10;;;;;;;18.71;78.26;100950.41;1807824;77;25286;-76
2022/08/04 02:58:19;;;;;;;9.28;8.20;;;;;;;18.69;78.25;100955.23;1805215;77;27471;-79
2022/08/04 03:00:49;;;;;;;11.73;8.13;;;;;;;18.66;78.15;100953.00;1792738;78;25787;-76
2022/08/04 03:03:37;;;;;;;9.08;8.05;;;;;;;18.63;78.31;100954.81;1787904;78;26420;-78
2022/08/04 03:06:31;;;;;;;9.83;7.97;;;;;;;18.59;78.44;100956.33;1813718;77;25791;-79
2022/08/04 03:09:26;;;;;;;8.88;7.97;;;;;;;18.57;78.59;100957.61;1812704;77;25781;-77
2022/08/04 03:12:15;;;;;;;7.80;6.97;;;;;;;18.55;78.60;100951.06;1777797;78;28272;-78
2022/08/04 03:14:56;;;;;;;10.85;7.85;;;;;;;18.54;78.60;100958.09;1818925;77;25806;-77
2022/08/04 03:17:52;;;;;;;9.43;7.72;;;;;;;18.51;78.67;100953.11;1785344;78;25958;-77
2022/08/04 03:20:50;;;;;;;8.40;7.47;;;;;;;18.48;78.77;100956.30;1798231;77;26250;-78
2022/08/04 03:23:41;;;;;;;8.43;7.62;;;;;;;18.45;78.95;100953.52;1816479;77;25779;-78
2022/08/04 03:26:38;;;;;;;8.58;7.78;;;;;;;18.48;79.08;100954.95;1822553;77;27577;-78
2022/08/04 03:29:36;;;;;;;10.48;8.53;;;;;;;18.50;79.20;100955.55;1803771;77;25951;-80
2022/08/04 03:32:28;;;;;;;8.80;7.90;;;;;;;18.54;79.45;100960.80;1811940;77;25836;-77
2022/08/04 03:35:15;;;;;;;9.18;8.20;;;;;;;18.57;79.38;100963.03;1669417;83;26269;-77
2022/08/04 03:38:08;;;;;;;8.88;7.97;;;;;;;18.58;79.22;100962.00;1823073;77;26374;-78
2022/08/04 03:40:56;;;;;;;10.25;8.05;;;;;;;18.58;79.18;100961.47;1674048;81;27485;-77
2022/08/04 03:43:31;;;;;;;8.43;7.62;;;;;;;18.59;79.15;100965.83;1729048;81;26623;-78
2022/08/04 03:46:08;;;;;;;9.55;7.58;;;;;;;18.58;79.11;100966.90;1769268;78;25889;-77
2022/08/04 03:49:11;;;;;;;9.18;8.28;;;;;;;18.58;79.10;100968.26;1808849;78;25752;-78
2022/08/04 03:55:11;;;;;;;10.93;7.17;;;;;;;18.53;79.03;100965.91;1781043;78;27449;-77
2022/08/04 03:58:18;;;;;;;7.85;7.05;;;;;;;18.53;79.31;100967.27;1816468;77;25913;-78
2022/08/04 04:01:12;;;;;;;10.93;7.55;;;;;;;18.56;79.51;100965.47;1810812;77;25799;-78
2022/08/04 04:04:05;;;;;;;9.78;8.05;;;;;;;18.56;79.42;100973.09;1822701;77;26020;-78
2022/08/04 04:07:09;;;;;;;8.48;7.62;;;;;;;18.58;79.50;100974.20;1780950;79;25827;-76
2022/08/04 04:09:44;;;;;;;9.43;8.35;;;;;;;18.63;79.88;100973.80;1809751;77;27443;-78
2022/08/04 04:12:24;;;;;;;9.05;8.10;;;;;;;18.68;79.89;100973.11;1806567;77;25910;-77
2022/08/04 04:15:11;;;;;;;8.23;7.42;;;;;;;18.73;80.04;100977.33;1818903;78;25790;-78
2022/08/04 04:18:19;;;;;;;10.95;8.43;;;;;;;18.81;80.20;100988.69;1748497;79;26017;-78
2022/08/04 04:21:28;;;;;;;10.45;8.28;;;;;;;18.89;80.33;100982.92;1813462;78;25798;-78
2022/08/04 04:24:23;;;;;;;8.48;7.58;;;;;;;18.99;80.38;100985.89;1801694;78;27446;-78
2022/08/04 04:27:19;;;;;;;12.23;7.97;;;;;;;19.07;80.38;100986.11;1815441;77;25942;-78
2022/08/04 04:30:20;;;;;;;10.05;7.58;;;;;;;19.15;80.44;100989.84;1803969;78;25722;-77
2022/08/04 04:33:06;;;;;;;8.30;7.50;;;;;;;19.23;80.48;100990.32;1792810;78;25780;-78
2022/08/04 04:35:50;;;;;;;9.20;6.95;;;;;;;19.33;80.51;100991.64;1815682;78;25873;-78
2022/08/04 04:38:37;;;;;;;12.93;7.05;;;;;;;19.42;80.54;100988.91;1792497;78;27506;-79
2022/08/04 04:41:11;;;;;;;11.63;7.83;;;;;;;19.48;80.64;100983.89;1756167;78;25867;-79
2022/08/04 04:44:15;;;;;;;11.45;6.97;;;;;;;19.56;80.46;100993.05;1811158;78;25800;-79
2022/08/04 04:46:53;;;;;;;7.95;6.85;;;;;;;19.63;80.64;100993.21;1791032;79;26662;-78
2022/08/04 04:49:42;;;;;;;8.75;7.15;;;;;;;19.75;80.69;100992.70;1820061;77;26519;-77
2022/08/04 04:52:22;;;;;;;8.73;6.25;;;;;;;19.86;80.74;100988.31;1830044;77;28766;-79
2022/08/04 04:55:01;;;;;;;;;;;;;;;19.97;80.47;100988.84;1799805;77;25818;-79
2022/08/04 04:57:32;;;;;;;9.25;6.28;;;;;;;20.07;80.52;100997.73;1802252;78;26451;-79
2022/08/04 05:00:12;;;;;;;9.85;6.62;;;;;;;20.14;80.42;100994.36;1797161;78;25752;-78
2022/08/04 05:02:57;;;;;;;8.95;6.97;;;;;;;20.24;80.14;100998.68;1824377;77;26407;-76
2022/08/04 05:05:53;;;;;;;11.12;7.12;;;;;;;20.34;80.05;100996.99;1817793;77;28233;-78
2022/08/04 05:08:33;;;;;;;9.93;6.58;;;;;;;20.44;79.92;100998.58;1812805;77;25897;-78
2022/08/04 05:11:40;;;;;;;11.12;7.30;;;;;;;20.55;79.88;100994.16;1740004;77;25967;-77
2022/08/04 05:14:30;;;;;;;10.28;6.25;;;;;;;20.64;79.74;100993.52;1786449;78;25869;-78
2022/08/04 05:17:20;;;;;;;10.40;6.22;;;;;;;20.75;79.66;100991.81;1808024;78;25929;-79
2022/08/04 05:20:05;;;;;;;11.18;6.28;;;;;;;20.81;79.36;100990.03;1792552;78;27725;-78
2022/08/04 05:22:46;;;;;;;9.63;5.87;;;;;;;20.90;79.25;100993.98;1802758;78;25966;-79
2022/08/04 05:25:23;;;;;;;8.40;6.03;;;;;;;20.98;79.17;100993.61;1818333;77;26464;-78
2022/08/04 05:28:17;;;;;;;12.45;6.83;;;;;;;21.07;79.16;100994.34;1800271;79;26278;-78
2022/08/04 05:30:48;;;;;;;7.42;5.92;;;;;;;21.14;79.10;100995.02;1777990;80;25700;-80
2022/08/04 05:33:22;;;;;;;12.85;7.42;;;;;;;21.23;79.01;100990.82;1798768;78;27479;-79
2022/08/04 05:35:53;;;;;;;11.38;6.95;;;;;;;21.32;78.91;100993.41;1787388;78;25898;-79
2022/08/04 05:38:25;;;;;;;11.38;7.22;;;;;;;21.40;78.62;100990.29;1792415;78;25838;-80
2022/08/04 05:40:53;;;;;;;10.05;7.33;;;;;;;21.51;78.78;100992.08;1792895;78;26605;-79
2022/08/04 05:43:25;;;;;;;9.75;7.40;;;;;;;21.59;78.49;100996.30;1786676;78;25549;-79
2022/08/04 05:45:53;;;;;;;14.00;7.50;;;;;;;21.67;78.45;100995.03;1798423;78;27416;-78
2022/08/04 05:48:20;;;;;;;11.48;7.95;;;;;;;21.76;78.53;100999.00;1790245;78;25961;-78
2022/08/04 05:50:47;;;;;;;8.75;6.78;;;;;;;21.87;77.88;100999.47;1788176;78;26462;-79
2022/08/04 05:53:16;;;;;;;8.60;6.97;;;;;;;21.89;77.81;101004.97;1810977;77;25879;-78
2022/08/04 05:55:44;;;;;;;7.90;6.40;;;;;;;21.94;77.52;101002.30;1793191;78;26311;-80
2022/08/04 05:58:12;;;;;;;8.60;6.37;;;;;;;22.02;77.71;101001.05;1782685;78;27433;-78
2022/08/04 06:00:41;;;;;;;8.33;6.10;;;;;;;22.11;77.43;101010.45;1825699;78;25913;-79
2022/08/04 06:03:08;;;;;;;11.63;6.30;;;;;;;22.19;77.58;101010.84;1819574;77;25806;-79
2022/08/04 06:05:35;;;;;;;7.83;6.53;;;;;;;22.29;77.56;101016.95;1820330;77;25851;-79
2022/08/04 06:08:03;;;;;;;9.35;6.10;;;;;;;22.37;77.47;101009.68;1811271;77;25747;-80
2022/08/04 06:10:33;;;;;;;7.33;6.25;;;;;;;22.45;77.33;101013.89;1823336;77;27612;-79
2022/08/04 06:13:10;;;;;;;7.90;6.17;;;;;;;22.55;77.09;101018.92;1813788;77;25777;-78
2022/08/04 06:15:42;;;;;;;7.95;6.00;;;;;;;22.65;77.22;101017.70;1795344;77;25783;-80
2022/08/04 06:18:11;;;;;;;9.53;6.72;;;;;;;22.75;77.30;101019.73;1805991;78;26359;-80
2022/08/04 06:20:40;;;;;;;6.20;5.60;;;;;;;22.85;77.34;101018.47;1804436;77;25956;-80
2022/08/04 06:23:10;;;;;;;7.87;5.92;;;;;;;22.94;76.92;101018.30;1789511;78;27433;-80
2022/08/04 06:25:50;;;;;;;7.45;6.65;;;;;;;23.03;76.52;101015.39;1805459;78;25766;-80
2022/08/04 06:28:18;;;;;;;7.58;5.42;;;;;;;23.10;76.27;101017.35;1812896;77;25890;-80
2022/08/04 06:30:48;;;;;;;8.03;5.55;;;;;;;23.17;76.03;101024.81;1815984;77;25810;-79
2022/08/04 06:33:35;;;;;;;8.05;6.65;;;;;;;23.26;76.36;101024.63;1814424;77;25854;-79
2022/08/04 06:36:05;;;;;;;8.28;6.05;;;;;;;23.34;76.23;101024.70;1802888;78;28635;-80
2022/08/04 06:38:38;;;;;;;7.00;5.72;;;;;;;23.42;76.12;101018.76;1800405;78;25783;-80
2022/08/04 06:41:02;;;;;;;10.20;5.87;;;;;;;23.47;75.95;101018.27;1772752;78;26422;-79
2022/08/04 06:43:32;;;;;;;7.85;5.30;;;;;;;23.51;75.60;101023.50;1819407;77;26204;-79
2022/08/04 06:46:01;;;;;;;7.73;5.33;;;;;;;23.58;75.37;101022.73;1808452;77;25962;-79
2022/08/04 06:48:28;;;;;;;8.10;5.17;;;;;;;23.65;75.69;101026.05;1801524;77;27396;-79
2022/08/04 06:50:59;;;;;;;7.87;5.28;;;;;;;23.70;75.40;101024.73;1816953;77;25728;-81
2022/08/04 06:53:26;;;;;;;9.73;5.53;;;;;;;23.78;75.46;101025.34;1790038;77;25741;-80
2022/08/04 06:55:53;;;;;;;9.60;5.70;;;;;;;23.86;75.56;101030.31;1803953;77;25827;-80
2022/08/04 06:58:22;;;;;;;7.42;5.40;;;;;;;23.94;75.40;101030.64;1785197;78;26461;-79
2022/08/04 07:00:49;;;;;;;8.88;4.75;;;;;;;24.03;75.22;101031.80;1788069;78;27466;-80
2022/08/04 07:03:20;;;;;;;7.58;4.42;;;;;;;24.11;75.20;101024.48;1786972;79;26016;-79
2022/08/04 07:05:48;;;;;;;6.97;5.58;;;;;;;24.20;74.54;101028.91;1812653;77;25682;-79
2022/08/04 07:08:16;;;;;;;5.87;4.92;;;;;;;24.28;74.06;101027.85;1775709;78;25435;-80
2022/08/04 07:10:45;;;;;;;6.33;5.05;;;;;;;24.34;73.50;101029.52;1799272;78;25888;-80
2022/08/04 07:13:12;;;;;;;6.15;4.78;;;;;;;24.42;73.15;101029.00;1816021;77;27449;-80
2022/08/04 07:15:43;;;;;;;5.95;4.65;;;;;;;24.48;72.77;101022.48;1817193;78;25809;-80
2022/08/04 07:18:10;;;;;;;10.58;5.45;;;;;;;24.54;72.13;101023.30;1827272;78;25985;-80
2022/08/04 07:20:42;;;;;;;6.95;4.60;;;;;;;24.62;72.16;101019.20;1819693;78;26955;-80
2022/08/04 07:23:11;;;;;;;10.45;5.10;;;;;;;24.69;72.09;101019.79;1824805;78;25881;-79
2022/08/04 07:25:38;;;;;;;9.83;5.55;;;;;;;24.77;72.00;101022.03;1815245;78;27529;-80
2022/08/04 07:28:05;;;;;;;9.75;5.37;;;;;;;24.82;72.32;101019.31;1794194;78;25869;-79
2022/08/04 07:30:32;;;;;;;8.20;4.83;;;;;;;24.89;71.66;101018.52;1776463;78;26558;-80
2022/08/04 07:33:00;;;;;;;7.67;5.10;;;;;;;24.92;70.97;101021.53;1825695;77;26261;-82
2022/08/04 07:35:28;;;;;;;8.25;5.28;;;;;;;24.97;70.95;101016.61;1822614;78;25769;-79
2022/08/04 07:37:55;;;;;;;11.33;5.28;;;;;;;25.02;70.21;101022.91;1789288;78;27441;-79
2022/08/04 07:40:21;;;;;;;6.50;4.60;;;;;;;25.09;70.13;101026.75;1779518;79;26400;-80
2022/08/04 07:42:48;;;;;;;11.45;4.67;;;;;;;25.15;70.03;101027.03;1811838;78;25776;-79
2022/08/04 07:45:18;;;;;;;5.47;4.97;;;;;;;25.20;68.91;101021.03;1784247;78;25768;-79
2022/08/04 07:47:44;;;;;;;7.20;5.72;;;;;;;25.25;68.57;101016.09;1794522;78;25648;-79
2022/08/04 07:50:11;;;;;;;9.78;4.30;;;;;;;25.32;67.97;101026.80;1817806;77;28361;-79
2022/08/04 07:52:38;;;;;;;11.15;4.85;;;;;;;25.39;68.27;101023.21;1789643;78;25855;-80
2022/08/04 07:55:06;;;;;;;6.70;4.65;;;;;;;25.48;69.25;101024.34;1800404;78;26136;-81
2022/08/04 07:57:33;;;;;;;7.92;4.28;;;;;;;25.53;68.52;101021.08;1779379;78;25771;-80
2022/08/04 07:59:59;;;;;;;6.62;5.03;;;;;;;25.56;67.58;101023.25;1799224;77;25751;-80
2022/08/04 08:02:28;;;;;;;6.35;4.75;;;;;;;25.59;67.33;101020.51;1795975;77;27436;-80
2022/08/04 08:04:55;;;;;;;5.85;4.22;;;;;;;25.63;67.45;101012.83;1800920;77;25727;-80
2022/08/04 08:07:21;;;;;;;4.95;4.45;;;;;;;25.71;67.13;101019.13;1809052;77;25838;-80
2022/08/04 08:09:47;;;;;;;8.43;4.70;;;;;;;25.79;67.75;101022.67;1775785;79;25997;-80
2022/08/04 08:12:14;;;;;;;6.28;4.40;;;;;;;25.83;66.27;101022.38;1791577;78;25905;-79
2022/08/04 08:14:41;;;;;;;8.63;4.30;;;;;;;25.86;66.67;101020.47;1812376;77;27478;-79
2022/08/04 08:17:07;;;;;;;10.28;5.03;;;;;;;25.89;65.34;101016.36;1824912;78;25942;-79
2022/08/04 08:19:35;;;;;;;6.22;3.98;;;;;;;25.94;65.46;101015.78;1780271;79;26417;-81
2022/08/04 08:22:02;;;;;;;8.13;4.37;;;;;;;26.02;66.10;101016.58;1790151;78;26521;-80
2022/08/04 08:24:32;;;;;;;10.65;4.45;;;;;;;26.12;65.75;101021.81;1807442;77;25813;-80
2022/08/04 08:27:03;;;;;;;8.75;4.40;;;;;;;26.19;65.11;101016.85;1780217;78;29450;-81
2022/08/04 08:29:34;;;;;;;11.30;4.85;;;;;;;26.22;65.66;101015.73;1819311;77;26144;-79
2022/08/04 08:32:03;;;;;;;11.50;4.78;;;;;;;26.29;64.93;101018.18;1804174;77;25789;-81
2022/08/04 08:34:30;;;;;;;7.10;4.70;;;;;;;26.34;65.27;101016.25;1795079;78;25797;-80
2022/08/04 08:37:23;;;;;;;9.35;4.65;;;;;;;26.38;64.88;101011.02;1792164;78;25803;-80
2022/08/04 08:40:17;;;;;;;8.25;4.60;;;;;;;26.41;63.56;101012.63;1751831;79;28314;-81
2022/08/04 08:43:01;;;;;;;7.85;4.10;;;;;;;26.49;63.15;101016.19;1786231;79;26001;-81
2022/08/04 08:45:42;;;;;;;5.25;4.05;;;;;;;26.52;62.87;101015.61;1768530;78;25857;-80
2022/08/04 08:48:58;;;;;;;5.55;4.10;;;;;;;26.59;63.11;101015.30;1781691;78;25755;-81
2022/08/04 08:51:52;;;;;;;7.22;4.25;;;;;;;26.67;62.93;101021.58;1782043;79;25816;-81
2022/08/04 08:54:43;;;;;;;4.83;4.40;;;;;;;26.75;62.15;101020.46;1813783;77;27447;-80
2022/08/04 08:57:34;;;;;;;7.30;3.70;;;;;;;26.84;61.56;101015.77;1780996;78;25729;-81
2022/08/04 09:00:19;;;;;;;8.50;4.20;;;;;;;26.92;62.77;101026.98;1813020;77;36363;-80
2022/08/04 09:03:17;;;;;;;4.95;4.10;;;;;;;26.99;61.31;101023.34;1817047;77;25774;-81
2022/08/04 09:06:33;;;;;;;7.33;3.52;;;;;;;27.03;60.32;101026.37;1811407;77;25692;-80
2022/08/04 09:09:19;;;;;;;8.58;4.12;;;;;;;27.06;59.63;101027.98;1805379;78;27674;-80
2022/08/04 09:11:59;;;;;;;5.20;3.60;;;;;;;27.10;58.81;101027.67;1802541;78;25922;-80
2022/08/04 09:14:53;;;;;;;6.67;3.35;;;;;;;27.15;58.62;101024.90;1821576;77;25757;-81
2022/08/04 09:17:25;;;;;;;9.38;4.17;;;;;;;27.20;59.63;101019.92;1808621;77;25933;-82
2022/08/04 09:20:22;;;;;;;8.00;4.00;;;;;;;27.23;58.66;101013.28;1790951;78;26169;-80
2022/08/04 09:23:11;;;;;;;4.42;3.85;;;;;;;27.27;59.29;101014.34;1825559;77;26972;-80
2022/08/04 09:25:43;;;;;;;4.45;3.67;;;;;;;27.36;59.36;101009.91;1813675;77;25845;-80
2022/08/04 09:28:25;;;;;;;4.50;3.65;;;;;;;27.39;59.00;101014.81;1809682;77;25473;-80
2022/08/04 09:31:13;;;;;;;5.72;3.95;;;;;;;27.46;59.98;101007.61;1818558;77;26462;-80
2022/08/04 09:33:51;;;;;;;6.15;3.60;;;;;;;27.54;60.24;101007.56;1800363;78;25960;-80
2022/08/04 09:36:31;;;;;;;4.87;3.83;;;;;;;27.62;59.95;101006.92;1808771;77;28296;-80
2022/08/04 09:39:15;;;;;;;4.95;3.35;;;;;;;27.68;58.35;101015.39;1806776;77;25854;-81
2022/08/04 09:41:47;;;;;;;5.53;3.02;;;;;;;27.70;57.00;101009.05;1777475;79;25807;-80
2022/08/04 09:44:51;;;;;;;5.00;3.47;;;;;;;27.75;56.56;101009.00;1810345;77;25950;-80
2022/08/04 09:47:31;;;;;;;3.77;3.17;;;;;;;27.79;55.95;101008.69;1820142;78;26282;-80
2022/08/04 09:50:08;;;;;;;;;;;;;;;27.84;55.82;101017.73;1779842;78;27419;-81
2022/08/04 09:53:12;;;;;;;3.08;2.83;;;;;;;27.87;54.84;101012.17;1782270;78;26509;-81
2022/08/04 09:56:06;;;;;;;8.38;3.12;;;;;;;27.88;54.83;101011.91;1779492;79;25757;-81
2022/08/04 09:59:03;;;;;;;3.10;2.80;;;;;;;27.89;54.82;101009.95;1813608;77;25763;-79
2022/08/04 10:01:31;;;;;;;3.35;3.05;;;;;;;27.91;54.80;101009.09;1821350;78;25734;-81
2022/08/04 10:04:02;;;;;;;3.22;2.92;;;;;;;27.94;53.69;101007.98;1791741;78;28379;-80
2022/08/04 10:06:46;;;;;;;5.37;2.75;;;;;;;27.99;55.21;101010.69;1799052;78;25886;-80
2022/08/04 10:09:53;;;;;;;3.37;2.90;;;;;;;28.08;54.64;101010.88;1740914;78;26575;-80
2022/08/04 10:12:35;;;;;;;6.05;3.95;;;;;;;28.14;54.41;101012.48;1761400;78;26293;-80
2022/08/04 10:15:34;;;;;;;4.97;3.27;;;;;;;28.21;53.96;101001.91;1780769;78;26156;-79
2022/08/04 10:18:31;;;;;;;4.03;3.30;;;;;;;28.27;53.92;101009.58;1786568;78;27542;-79
2022/08/04 10:21:12;;;;;;;3.85;3.15;;;;;;;28.33;52.98;101007.02;1820755;77;26421;-80
2022/08/04 10:24:02;;;;;;;;;;;;;;;28.38;53.28;101006.37;1810207;78;26520;-79
2022/08/04 10:26:34;;;;;;;5.83;3.30;;;;;;;28.39;52.51;101008.03;1815142;78;25739;-80
2022/08/04 10:29:11;;;;;;;4.28;3.40;;;;;;;28.44;53.09;101003.84;1812667;77;26029;-80
2022/08/04 10:31:53;;;;;;;3.87;3.47;;;;;;;28.50;52.68;101000.45;1817152;78;27447;-80
2022/08/04 10:34:24;;;;;;;4.90;3.60;;;;;;;28.56;52.92;101000.09;1784741;79;25965;-81
2022/08/04 10:37:07;;;;;;;4.72;3.17;;;;;;;28.62;52.17;100996.17;1793132;78;26545;-79
2022/08/04 10:40:35;;;;;;;5.05;2.87;;;;;;;28.55;51.70;100989.37;1792063;78;25949;-82
2022/08/04 10:42:26;;;;;;;3.00;2.77;;;;;;;28.47;51.64;100988.08;1790246;78;25924;-79
2022/08/04 10:45:18;;;;;;;5.62;3.60;;;;;;;28.39;51.85;100989.30;1814029;77;27603;-79
2022/08/04 10:48:08;;;;;;;6.95;3.67;;;;;;;28.38;51.42;100985.71;1808222;77;25957;-80
2022/08/04 10:50:39;;;;;;;4.37;2.92;;;;;;;28.45;51.71;100988.94;1814286;77;26464;-80
2022/08/04 10:53:15;;;;;;;;;;;;;;;28.47;50.81;100991.39;1810984;77;25299;-78
2022/08/04 10:55:49;;;;;;;3.00;2.80;;;;;;;28.44;50.89;100985.94;1808598;77;25745;-77
2022/08/04 10:58:20;;;;;;;4.22;2.98;;;;;;;28.48;50.87;100982.84;1813006;77;28509;-77
2022/08/04 11:00:48;;;;;;;8.10;3.02;;;;;;;28.57;51.13;100976.94;1807821;77;25731;-77
2022/08/04 11:03:48;;;;;;;5.10;3.02;;;;;;;28.74;51.19;100981.97;1813834;77;25865;-78
2022/08/04 11:06:16;;;;;;;5.17;3.47;;;;;;;28.87;50.72;100978.47;1809949;77;27760;-77
2022/08/04 11:08:47;;;;;;;3.20;3.00;;;;;;;28.98;50.83;100974.41;1798019;77;25420;-78
2022/08/04 11:11:39;;;;;;;4.75;3.25;;;;;;;29.08;50.56;100968.75;1797951;77;28239;-80
2022/08/04 11:14:23;;;;;;;6.10;3.47;;;;;;;29.18;50.02;100970.54;1808860;77;25837;-78
2022/08/04 11:17:12;;;;;;;5.25;3.33;;;;;;;29.26;50.29;100972.05;1821596;77;25669;-77
2022/08/04 11:20:10;;;;;;;5.58;3.52;;;;;;;29.32;49.45;100972.80;1805479;77;26496;-77
2022/08/04 11:22:42;;;;;;;3.52;3.22;;;;;;;29.36;49.06;100967.73;1814207;77;25698;-77
2022/08/04 11:25:21;;;;;;;3.47;3.10;;;;;;;29.35;48.48;100968.87;1814806;77;27437;-77
2022/08/04 11:27:59;;;;;;;5.87;3.67;;;;;;;29.35;49.27;100967.48;1808050;77;25647;-77
2022/08/04 11:30:31;;;;;;;3.65;2.95;;;;;;;29.46;49.14;100971.71;1813798;77;25794;-77
2022/08/04 11:33:38;;;;;;;3.67;2.87;;;;;;;29.55;49.67;100970.45;1804430;77;26528;-78
2022/08/04 11:36:29;;;;;;;5.22;3.35;;;;;;;29.53;49.10;100969.94;1802736;77;25795;-77
2022/08/04 11:39:16;;;;;;;5.87;3.33;;;;;;;29.53;48.66;100968.56;1807984;77;27445;-78
2022/08/04 11:41:53;;;;;;;3.37;2.80;;;;;;;29.50;47.20;100963.63;1744884;77;26248;-78
2022/08/04 11:44:33;;;;;;;3.98;3.10;;;;;;;29.52;48.13;100959.45;1813291;77;26530;-78
2022/08/04 11:47:17;;;;;;;5.20;3.27;;;;;;;29.60;47.98;100961.50;1813441;77;25893;-78
2022/08/04 11:49:49;;;;;;;7.87;3.42;;;;;;;29.67;47.70;100953.66;1798557;78;25860;-78
2022/08/04 11:55:10;;;;;;;2.92;2.72;;;;;;;29.77;47.97;100954.03;1774436;79;25871;-78
2022/08/04 11:57:38;;;;;;;5.12;3.17;;;;;;;29.84;48.23;100961.36;1763272;79;25857;-79
2022/08/04 12:00:09;;;;;;;7.40;2.98;;;;;;;29.93;48.16;100956.77;1743648;80;26575;-79
2022/08/04 12:03:13;;;;;;;5.22;3.20;;;;;;;29.99;48.21;100952.78;1768654;79;25773;-80
2022/08/04 12:06:16;;;;;;;3.50;3.20;;;;;;;30.04;48.01;100944.95;1736513;80;28180;-79
2022/08/04 12:09:26;;;;;;;4.95;3.33;;;;;;;30.05;47.77;100947.95;1733226;80;25733;-79
2022/08/04 12:12:13;;;;;;;3.83;3.02;;;;;;;30.10;47.36;100951.45;1734746;80;25783;-79
2022/08/04 12:15:04;;;;;;;4.08;3.10;;;;;;;30.13;46.75;100945.87;1740024;80;26623;-78
2022/08/04 12:17:51;;;;;;;4.22;3.08;;;;;;;30.12;46.45;100950.58;1719004;81;25754;-79
2022/08/04 12:20:22;;;;;;;3.83;3.10;;;;;;;30.14;46.77;100946.12;1742057;80;27471;-80
2022/08/04 12:22:51;;;;;;;6.55;3.05;;;;;;;30.17;46.23;100949.66;1727544;81;26176;-79
2022/08/04 12:25:28;;;;;;;3.25;2.92;;;;;;;30.19;46.27;100947.41;1722522;81;25897;-79
2022/08/04 12:28:05;;;;;;;6.17;2.95;;;;;;;30.26;46.34;100951.95;1711464;81;26566;-79